sensor_id;sensor_type;location;lat;lon;timestamp;pressure;altitude;pressure_sealevel;temperature;humidity
34482;BME280;20720;48.886;9.388;2024-03-25T00:00:27;97656.66;;;8.48;100.00
34482;BME280;20720;48.886;9.388;2024-03-25T00:02:53;97654.06;;;8.54;100.00
34482;BME280;20720;48.886;9.388;2024-03-25T00:05:19;97655.88;;;8.34;100.00
34482;BME280;20720;48.886;9.388;2024-03-25T00:07:48;97657.88;;;8.72;100.00
34482;BME280;20720;48.886;9.388;2024-03-25T00:10:14;97659.22;;;9.00;100.00
34482;BME280;20720;48.886;9.388;2024-03-25T00:12:39;97656.22;;;8.90;100.00
34482;BME280;20720;48.886;9.388;2024-03-25T00:15:04;97664.88;;;8.12;100.00
34482;BME280;20720;48.886;9.388;2024-03-25T00:17:30;97660.03;;;9.01;100.00
34482;BME280;20720;48.886;9.388;2024-03-25T00:19:56;97663.72;;;8.74;100.00
34482;BME280;20720;48.886;9.388;2024-03-25T00:22:22;97660.06;;;8.75;100.00
34482;BME280;20720;48.886;9.388;2024-03-25T00:24:48;97658.38;;;9.13;100.00
34482;BME280;20720;48.886;9.388;2024-03-25T00:27:14;97658.00;;;9.09;100.00
34482;BME280;20720;48.886;9.388;2024-03-25T00:29:40;97659.91;;;9.40;100.00
34482;BME280;20720;48.886;9.388;2024-03-25T00:32:06;97655.88;;;8.47;100.00
34482;BME280;20720;48.886;9.388;2024-03-25T00:34:32;97656.78;;;9.12;100.00
34482;BME280;20720;48.886;9.388;2024-03-25T00:37:01;97656.34;;;9.21;100.00
34482;BME280;20720;48.886;9.388;2024-03-25T00:39:27;97658.66;;;8.85;100.00
34482;BME280;20720;48.886;9.388;2024-03-25T00:41:53;97655.63;;;8.03;100.00
34482;BME280;20720;48.886;9.388;2024-03-25T00:44:18;97652.78;;;8.90;100.00
34482;BME280;20720;48.886;9.388;2024-03-25T00:46:44;97647.41;;;8.59;100.00
34482;BME280;20720;48.886;9.388;2024-03-25T00:49:10;97655.66;;;8.69;100.00
34482;BME280;20720;48.886;9.388;2024-03-25T00:51:36;97651.25;;;8.49;100.00
34482;BME280;20720;48.886;9.388;2024-03-25T00:54:01;97654.88;;;8.48;100.00
34482;BME280;20720;48.886;9.388;2024-03-25T00:56:27;97647.00;;;8.48;100.00
34482;BME280;20720;48.886;9.388;2024-03-25T00:58:52;97653.44;;;8.66;100.00
34482;BME280;20720;48.886;9.388;2024-03-25T01:01:17;97652.44;;;8.27;100.00
34482;BME280;20720;48.886;9.388;2024-03-25T01:03:43;97651.25;;;8.43;100.00
34482;BME280;20720;48.886;9.388;2024-03-25T01:06:08;97647.97;;;8.87;100.00
34482;BME280;20720;48.886;9.388;2024-03-25T01:08:33;97644.56;;;8.73;100.00
34482;BME280;20720;48.886;9.388;2024-03-25T01:10:59;97648.94;;;9.05;100.00
34482;BME280;20720;48.886;9.388;2024-03-25T01:13:25;97641.94;;;8.73;100.00
34482;BME280;20720;48.886;9.388;2024-03-25T01:15:51;97648.34;;;8.97;100.00
34482;BME280;20720;48.886;9.388;2024-03-25T01:18:17;97648.00;;;8.74;100.00
34482;BME280;20720;48.886;9.388;2024-03-25T01:20:42;97641.56;;;8.17;100.00
34482;BME280;20720;48.886;9.388;2024-03-25T01:23:07;97640.53;;;8.71;100.00
34482;BME280;20720;48.886;9.388;2024-03-25T01:25:32;97641.13;;;8.79;100.00
34482;BME280;20720;48.886;9.388;2024-03-25T01:27:58;97640.34;;;8.66;100.00
34482;BME280;20720;48.886;9.388;2024-03-25T01:30:23;97631.06;;;8.63;100.00
34482;BME280;20720;48.886;9.388;2024-03-25T01:32:48;97641.97;;;8.27;100.00
34482;BME280;20720;48.886;9.388;2024-03-25T01:35:14;97630.31;;;8.43;100.00
34482;BME280;20720;48.886;9.388;2024-03-25T01:37:41;97639.94;;;8.75;100.00
34482;BME280;20720;48.886;9.388;2024-03-25T01:40:07;97642.34;;;8.77;100.00
34482;BME280;20720;48.886;9.388;2024-03-25T01:42:32;97644.00;;;8.65;100.00
34482;BME280;20720;48.886;9.388;2024-03-25T01:44:58;97645.44;;;9.31;100.00
34482;BME280;20720;48.886;9.388;2024-03-25T01:47:24;97633.53;;;8.51;100.00
34482;BME280;20720;48.886;9.388;2024-03-25T01:49:50;97641.91;;;8.86;100.00
34482;BME280;20720;48.886;9.388;2024-03-25T01:52:19;97646.72;;;8.96;100.00
34482;BME280;20720;48.886;9.388;2024-03-25T01:54:45;97648.59;;;9.46;100.00
34482;BME280;20720;48.886;9.388;2024-03-25T01:57:10;97647.75;;;8.95;100.00
34482;BME280;20720;48.886;9.388;2024-03-25T01:59:36;97647.56;;;8.77;100.00
34482;BME280;20720;48.886;9.388;2024-03-25T02:02:01;97644.38;;;8.68;100.00
34482;BME280;20720;48.886;9.388;2024-03-25T02:04:27;97637.75;;;9.36;100.00
34482;BME280;20720;48.886;9.388;2024-03-25T02:06:52;97646.22;;;9.31;100.00
34482;BME280;20720;48.886;9.388;2024-03-25T02:09:21;97650.38;;;8.95;100.00
34482;BME280;20720;48.886;9.388;2024-03-25T02:11:47;97637.13;;;8.70;100.00
34482;BME280;20720;48.886;9.388;2024-03-25T02:14:13;97643.84;;;9.17;100.00
34482;BME280;20720;48.886;9.388;2024-03-25T02:16:38;97647.63;;;8.50;100.00
34482;BME280;20720;48.886;9.388;2024-03-25T02:19:04;97641.06;;;9.12;100.00
34482;BME280;20720;48.886;9.388;2024-03-25T02:21:29;97631.78;;;9.03;100.00
34482;BME280;20720;48.886;9.388;2024-03-25T02:23:56;97638.75;;;8.38;100.00
34482;BME280;20720;48.886;9.388;2024-03-25T02:26:23;97644.03;;;9.66;100.00
34482;BME280;20720;48.886;9.388;2024-03-25T02:28:48;97643.28;;;9.08;100.00
34482;BME280;20720;48.886;9.388;2024-03-25T02:31:13;97638.63;;;9.17;100.00
34482;BME280;20720;48.886;9.388;2024-03-25T02:33:39;97636.34;;;8.30;100.00
34482;BME280;20720;48.886;9.388;2024-03-25T02:36:04;97628.50;;;8.43;100.00
34482;BME280;20720;48.886;9.388;2024-03-25T02:38:29;97633.84;;;9.01;100.00
34482;BME280;20720;48.886;9.388;2024-03-25T02:40:57;97634.53;;;9.34;100.00
34482;BME280;20720;48.886;9.388;2024-03-25T02:43:24;97644.31;;;9.01;100.00
34482;BME280;20720;48.886;9.388;2024-03-25T02:45:50;97640.84;;;9.07;100.00
34482;BME280;20720;48.886;9.388;2024-03-25T02:48:15;97640.06;;;9.06;100.00
34482;BME280;20720;48.886;9.388;2024-03-25T02:50:40;97643.84;;;9.23;100.00
34482;BME280;20720;48.886;9.388;2024-03-25T02:53:05;97647.94;;;9.00;100.00
34482;BME280;20720;48.886;9.388;2024-03-25T02:55:31;97647.81;;;8.29;100.00
34482;BME280;20720;48.886;9.388;2024-03-25T02:57:57;97643.09;;;9.10;100.00
34482;BME280;20720;48.886;9.388;2024-03-25T03:00:22;97643.53;;;8.87;100.00
34482;BME280;20720;48.886;9.388;2024-03-25T03:02:48;97638.09;;;8.89;100.00
34482;BME280;20720;48.886;9.388;2024-03-25T03:05:13;97641.75;;;8.62;100.00
34482;BME280;20720;48.886;9.388;2024-03-25T03:07:38;97632.28;;;8.74;100.00
34482;BME280;20720;48.886;9.388;2024-03-25T03:10:04;97634.72;;;8.55;100.00
34482;BME280;20720;48.886;9.388;2024-03-25T03:12:30;97643.13;;;8.90;100.00
34482;BME280;20720;48.886;9.388;2024-03-25T03:14:55;97638.34;;;8.54;100.00
34482;BME280;20720;48.886;9.388;2024-03-25T03:17:20;97648.84;;;8.28;100.00
34482;BME280;20720;48.886;9.388;2024-03-25T03:19:46;97645.13;;;8.95;100.00
34482;BME280;20720;48.886;9.388;2024-03-25T03:22:11;97632.06;;;9.39;100.00
34482;BME280;20720;48.886;9.388;2024-03-25T03:24:36;97630.44;;;9.44;100.00
34482;BME280;20720;48.886;9.388;2024-03-25T03:27:02;97621.94;;;9.49;100.00
34482;BME280;20720;48.886;9.388;2024-03-25T03:29:27;97627.78;;;9.89;100.00
34482;BME280;20720;48.886;9.388;2024-03-25T03:31:52;97625.09;;;9.64;100.00
34482;BME280;20720;48.886;9.388;2024-03-25T03:34:18;97624.94;;;9.59;100.00
34482;BME280;20720;48.886;9.388;2024-03-25T03:36:43;97618.78;;;9.40;100.00
34482;BME280;20720;48.886;9.388;2024-03-25T03:39:08;97622.72;;;9.56;100.00
34482;BME280;20720;48.886;9.388;2024-03-25T03:41:34;97622.25;;;9.28;100.00
34482;BME280;20720;48.886;9.388;2024-03-25T03:43:59;97626.75;;;9.59;100.00
34482;BME280;20720;48.886;9.388;2024-03-25T03:46:25;97618.41;;;9.68;100.00
34482;BME280;20720;48.886;9.388;2024-03-25T03:48:50;97619.63;;;9.28;100.00
34482;BME280;20720;48.886;9.388;2024-03-25T03:51:15;97616.69;;;9.49;100.00
34482;BME280;20720;48.886;9.388;2024-03-25T03:53:40;97617.75;;;8.91;100.00
34482;BME280;20720;48.886;9.388;2024-03-25T03:56:06;97616.50;;;8.93;100.00
34482;BME280;20720;48.886;9.388;2024-03-25T03:58:31;97617.97;;;8.83;100.00
34482;BME280;20720;48.886;9.388;2024-03-25T04:00:56;97616.97;;;8.71;100.00
34482;BME280;20720;48.886;9.388;2024-03-25T04:03:22;97624.66;;;8.46;100.00
34482;BME280;20720;48.886;9.388;2024-03-25T04:05:47;97635.31;;;8.57;100.00
34482;BME280;20720;48.886;9.388;2024-03-25T04:08:13;97637.06;;;8.90;100.00
34482;BME280;20720;48.886;9.388;2024-03-25T04:10:38;97644.16;;;8.70;100.00
34482;BME280;20720;48.886;9.388;2024-03-25T04:13:04;97644.72;;;8.98;100.00
34482;BME280;20720;48.886;9.388;2024-03-25T04:15:32;97643.47;;;9.07;100.00
34482;BME280;20720;48.886;9.388;2024-03-25T04:17:58;97642.75;;;8.74;100.00
34482;BME280;20720;48.886;9.388;2024-03-25T04:20:23;97647.56;;;8.77;100.00
34482;BME280;20720;48.886;9.388;2024-03-25T04:22:49;97641.78;;;9.38;100.00
34482;BME280;20720;48.886;9.388;2024-03-25T04:25:14;97643.63;;;9.25;100.00
34482;BME280;20720;48.886;9.388;2024-03-25T04:27:40;97637.25;;;9.52;100.00
34482;BME280;20720;48.886;9.388;2024-03-25T04:30:08;97638.50;;;8.86;100.00
34482;BME280;20720;48.886;9.388;2024-03-25T04:32:34;97641.13;;;8.73;100.00
34482;BME280;20720;48.886;9.388;2024-03-25T04:35:00;97637.44;;;9.06;100.00
34482;BME280;20720;48.886;9.388;2024-03-25T04:37:25;97640.56;;;9.34;100.00
34482;BME280;20720;48.886;9.388;2024-03-25T04:39:51;97636.31;;;9.40;100.00
34482;BME280;20720;48.886;9.388;2024-03-25T04:42:16;97631.09;;;9.71;100.00
34482;BME280;20720;48.886;9.388;2024-03-25T04:44:41;97629.66;;;9.75;100.00
34482;BME280;20720;48.886;9.388;2024-03-25T04:47:06;97631.41;;;9.50;100.00
34482;BME280;20720;48.886;9.388;2024-03-25T04:49:31;97628.47;;;9.33;100.00
34482;BME280;20720;48.886;9.388;2024-03-25T04:51:57;97630.34;;;9.64;100.00
34482;BME280;20720;48.886;9.388;2024-03-25T04:54:22;97630.09;;;9.72;100.00
34482;BME280;20720;48.886;9.388;2024-03-25T04:56:47;97640.06;;;8.93;100.00
34482;BME280;20720;48.886;9.388;2024-03-25T04:59:13;97639.28;;;9.50;100.00
34482;BME280;20720;48.886;9.388;2024-03-25T05:01:38;97636.22;;;9.15;100.00
34482;BME280;20720;48.886;9.388;2024-03-25T05:04:03;97643.41;;;9.33;100.00
34482;BME280;20720;48.886;9.388;2024-03-25T05:06:29;97643.94;;;9.86;100.00
34482;BME280;20720;48.886;9.388;2024-03-25T05:08:54;97645.63;;;9.74;100.00
34482;BME280;20720;48.886;9.388;2024-03-25T05:11:19;97645.63;;;9.67;100.00
34482;BME280;20720;48.886;9.388;2024-03-25T05:13:44;97647.88;;;9.70;100.00
34482;BME280;20720;48.886;9.388;2024-03-25T05:16:10;97645.09;;;9.08;100.00
34482;BME280;20720;48.886;9.388;2024-03-25T05:18:36;97659.00;;;9.02;100.00
34482;BME280;20720;48.886;9.388;2024-03-25T05:21:01;97659.22;;;8.94;100.00
34482;BME280;20720;48.886;9.388;2024-03-25T05:23:26;97652.19;;;8.94;100.00
34482;BME280;20720;48.886;9.388;2024-03-25T05:25:52;97658.03;;;8.90;100.00
34482;BME280;20720;48.886;9.388;2024-03-25T05:28:17;97662.41;;;9.09;100.00
34482;BME280;20720;48.886;9.388;2024-03-25T05:30:42;97662.47;;;8.83;100.00
34482;BME280;20720;48.886;9.388;2024-03-25T05:33:07;97663.09;;;8.78;100.00
34482;BME280;20720;48.886;9.388;2024-03-25T05:35:33;97662.41;;;9.09;100.00
34482;BME280;20720;48.886;9.388;2024-03-25T05:38:01;97655.97;;;9.11;100.00
34482;BME280;20720;48.886;9.388;2024-03-25T05:40:28;97664.69;;;8.86;100.00
34482;BME280;20720;48.886;9.388;2024-03-25T05:42:53;97663.94;;;8.52;100.00
34482;BME280;20720;48.886;9.388;2024-03-25T05:45:18;97666.13;;;8.62;100.00
34482;BME280;20720;48.886;9.388;2024-03-25T05:47:44;97666.13;;;8.82;100.00
34482;BME280;20720;48.886;9.388;2024-03-25T05:50:09;97674.53;;;9.10;100.00
34482;BME280;20720;48.886;9.388;2024-03-25T05:52:34;97673.13;;;8.88;100.00
34482;BME280;20720;48.886;9.388;2024-03-25T05:55:00;97674.53;;;9.10;100.00
34482;BME280;20720;48.886;9.388;2024-03-25T05:57:26;97673.88;;;9.21;100.00
34482;BME280;20720;48.886;9.388;2024-03-25T05:59:51;97671.31;;;9.01;100.00
34482;BME280;20720;48.886;9.388;2024-03-25T06:02:16;97670.13;;;9.92;100.00
34482;BME280;20720;48.886;9.388;2024-03-25T06:04:41;97671.34;;;8.82;100.00
34482;BME280;20720;48.886;9.388;2024-03-25T06:07:06;97669.13;;;9.49;100.00
34482;BME280;20720;48.886;9.388;2024-03-25T06:09:32;97668.41;;;9.29;100.00
34482;BME280;20720;48.886;9.388;2024-03-25T06:11:57;97682.94;;;9.25;100.00
34482;BME280;20720;48.886;9.388;2024-03-25T06:14:22;97675.09;;;9.69;100.00
34482;BME280;20720;48.886;9.388;2024-03-25T06:16:47;97681.66;;;9.47;100.00
34482;BME280;20720;48.886;9.388;2024-03-25T06:19:13;97684.59;;;9.64;100.00
34482;BME280;20720;48.886;9.388;2024-03-25T06:21:38;97682.50;;;10.16;100.00
34482;BME280;20720;48.886;9.388;2024-03-25T06:24:04;97675.25;;;9.30;100.00
34482;BME280;20720;48.886;9.388;2024-03-25T06:26:29;97671.56;;;10.51;97.27
34482;BME280;20720;48.886;9.388;2024-03-25T06:28:54;97673.22;;;10.45;93.45
34482;BME280;20720;48.886;9.388;2024-03-25T06:31:20;97676.69;;;10.39;95.54
34482;BME280;20720;48.886;9.388;2024-03-25T06:34:03;97673.94;;;9.59;100.00
34482;BME280;20720;48.886;9.388;2024-03-25T06:36:49;97660.94;;;10.64;95.62
34482;BME280;20720;48.886;9.388;2024-03-25T06:39:15;97667.81;;;10.40;94.19
34482;BME280;20720;48.886;9.388;2024-03-25T06:41:40;97665.22;;;10.02;95.20
34482;BME280;20720;48.886;9.388;2024-03-25T06:44:06;97671.34;;;10.27;93.79
34482;BME280;20720;48.886;9.388;2024-03-25T06:46:31;97666.97;;;9.77;98.58
34482;BME280;20720;48.886;9.388;2024-03-25T06:48:57;97673.94;;;9.52;100.00
34482;BME280;20720;48.886;9.388;2024-03-25T06:51:22;97673.69;;;10.04;100.00
34482;BME280;20720;48.886;9.388;2024-03-25T06:53:47;97681.81;;;9.96;100.00
34482;BME280;20720;48.886;9.388;2024-03-25T06:56:13;97685.34;;;9.26;100.00
34482;BME280;20720;48.886;9.388;2024-03-25T06:58:38;97676.84;;;9.44;100.00
34482;BME280;20720;48.886;9.388;2024-03-25T07:01:05;97680.69;;;9.79;100.00
34482;BME280;20720;48.886;9.388;2024-03-25T07:03:32;97679.94;;;9.72;99.70
34482;BME280;20720;48.886;9.388;2024-03-25T07:05:57;97679.94;;;9.72;100.00
34482;BME280;20720;48.886;9.388;2024-03-25T07:08:25;97676.91;;;10.06;98.05
34482;BME280;20720;48.886;9.388;2024-03-25T07:10:50;97685.13;;;10.16;98.29
34482;BME280;20720;48.886;9.388;2024-03-25T07:13:15;97676.94;;;9.62;99.22
34482;BME280;20720;48.886;9.388;2024-03-25T07:15:42;97689.75;;;10.27;96.74
34482;BME280;20720;48.886;9.388;2024-03-25T07:18:08;97681.84;;;9.90;99.67
34482;BME280;20720;48.886;9.388;2024-03-25T07:20:35;97693.88;;;10.10;98.03
34482;BME280;20720;48.886;9.388;2024-03-25T07:23:00;97695.00;;;10.27;95.56
34482;BME280;20720;48.886;9.388;2024-03-25T07:25:26;97695.59;;;9.85;97.80
34482;BME280;20720;48.886;9.388;2024-03-25T07:27:52;97696.66;;;10.09;98.46
34482;BME280;20720;48.886;9.388;2024-03-25T07:30:20;97694.25;;;10.14;98.07
34482;BME280;20720;48.886;9.388;2024-03-25T07:32:47;97695.97;;;10.82;94.60
34482;BME280;20720;48.886;9.388;2024-03-25T07:35:13;97697.72;;;10.01;96.43
34482;BME280;20720;48.886;9.388;2024-03-25T07:37:38;97691.47;;;10.33;95.34
34482;BME280;20720;48.886;9.388;2024-03-25T07:40:04;97686.47;;;10.57;95.57
34482;BME280;20720;48.886;9.388;2024-03-25T07:42:30;97676.50;;;10.90;94.64
34482;BME280;20720;48.886;9.388;2024-03-25T07:44:56;97681.75;;;11.80;88.96
34482;BME280;20720;48.886;9.388;2024-03-25T07:47:21;97680.88;;;11.14;89.20
34482;BME280;20720;48.886;9.388;2024-03-25T07:49:46;97683.91;;;10.50;94.38
34482;BME280;20720;48.886;9.388;2024-03-25T07:52:11;97673.81;;;11.98;87.87
34482;BME280;20720;48.886;9.388;2024-03-25T07:54:37;97678.44;;;12.79;80.65
34482;BME280;20720;48.886;9.388;2024-03-25T07:57:03;97677.88;;;13.00;82.01
34482;BME280;20720;48.886;9.388;2024-03-25T07:59:29;97695.22;;;14.27;76.20
34482;BME280;20720;48.886;9.388;2024-03-25T08:01:54;97692.78;;;13.69;75.45
34482;BME280;20720;48.886;9.388;2024-03-25T08:04:19;97693.56;;;13.30;74.09
34482;BME280;20720;48.886;9.388;2024-03-25T08:06:44;97697.97;;;11.05;82.05
34482;BME280;20720;48.886;9.388;2024-03-25T08:09:10;97692.13;;;12.35;78.86
34482;BME280;20720;48.886;9.388;2024-03-25T08:11:35;97697.19;;;13.52;73.32
34482;BME280;20720;48.886;9.388;2024-03-25T08:14:01;97700.66;;;12.71;74.08
34482;BME280;20720;48.886;9.388;2024-03-25T08:16:26;97694.97;;;13.32;72.87
34482;BME280;20720;48.886;9.388;2024-03-25T08:18:51;97696.34;;;12.24;74.26
34482;BME280;20720;48.886;9.388;2024-03-25T08:21:17;97697.09;;;14.14;70.13
34482;BME280;20720;48.886;9.388;2024-03-25T08:23:45;97686.16;;;15.82;66.87
34482;BME280;20720;48.886;9.388;2024-03-25T08:26:10;97683.38;;;16.20;63.74
34482;BME280;20720;48.886;9.388;2024-03-25T08:28:36;97679.78;;;16.05;63.86
34482;BME280;20720;48.886;9.388;2024-03-25T08:31:01;97691.84;;;12.77;68.94
34482;BME280;20720;48.886;9.388;2024-03-25T08:33:26;97678.75;;;14.86;67.12
34482;BME280;20720;48.886;9.388;2024-03-25T08:35:53;97676.69;;;15.64;61.20
34482;BME280;20720;48.886;9.388;2024-03-25T08:38:18;97670.25;;;16.93;57.09
34482;BME280;20720;48.886;9.388;2024-03-25T08:40:44;97667.03;;;17.33;55.68
34482;BME280;20720;48.886;9.388;2024-03-25T08:43:09;97670.38;;;16.19;58.48
34482;BME280;20720;48.886;9.388;2024-03-25T08:45:34;97674.34;;;17.58;54.09
34482;BME280;20720;48.886;9.388;2024-03-25T08:48:00;97667.78;;;15.97;54.47
34482;BME280;20720;48.886;9.388;2024-03-25T08:50:25;97665.50;;;15.57;55.06
34482;BME280;20720;48.886;9.388;2024-03-25T08:52:50;97656.31;;;16.18;55.46
34482;BME280;20720;48.886;9.388;2024-03-25T08:55:15;97659.34;;;18.14;51.86
34482;BME280;20720;48.886;9.388;2024-03-25T08:57:40;97660.47;;;18.88;49.95
34482;BME280;20720;48.886;9.388;2024-03-25T09:00:06;97652.00;;;20.14;47.72
34482;BME280;20720;48.886;9.388;2024-03-25T09:02:35;97657.59;;;20.22;47.34
34482;BME280;20720;48.886;9.388;2024-03-25T09:05:01;97657.50;;;17.42;50.46
34482;BME280;20720;48.886;9.388;2024-03-25T09:07:26;97638.09;;;18.94;48.33
34482;BME280;20720;48.886;9.388;2024-03-25T09:09:51;97632.53;;;18.60;47.90
34482;BME280;20720;48.886;9.388;2024-03-25T09:12:35;97643.25;;;13.87;56.73
34482;BME280;20720;48.886;9.388;2024-03-25T09:15:01;97639.13;;;14.53;58.55
34482;BME280;20720;48.886;9.388;2024-03-25T09:17:26;97630.25;;;17.05;55.98
34482;BME280;20720;48.886;9.388;2024-03-25T09:19:51;97629.50;;;19.22;50.56
34482;BME280;20720;48.886;9.388;2024-03-25T09:22:16;97628.81;;;18.66;48.52
34482;BME280;20720;48.886;9.388;2024-03-25T09:24:42;97623.00;;;19.58;47.25
34482;BME280;20720;48.886;9.388;2024-03-25T09:27:08;97633.31;;;18.31;47.41
34482;BME280;20720;48.886;9.388;2024-03-25T09:29:33;97623.09;;;17.67;48.37
34482;BME280;20720;48.886;9.388;2024-03-25T09:31:58;97625.31;;;17.29;47.81
34482;BME280;20720;48.886;9.388;2024-03-25T09:34:23;97627.72;;;16.88;49.91
34482;BME280;20720;48.886;9.388;2024-03-25T09:36:49;97624.53;;;18.35;48.28
34482;BME280;20720;48.886;9.388;2024-03-25T09:39:14;97615.63;;;19.30;44.70
34482;BME280;20720;48.886;9.388;2024-03-25T09:41:43;97616.31;;;19.61;43.66
34482;BME280;20720;48.886;9.388;2024-03-25T09:44:08;97607.78;;;18.35;43.06
34482;BME280;20720;48.886;9.388;2024-03-25T09:46:35;97611.75;;;17.30;44.48
34482;BME280;20720;48.886;9.388;2024-03-25T09:49:01;97597.38;;;18.08;45.58
34482;BME280;20720;48.886;9.388;2024-03-25T09:51:30;97594.50;;;19.54;43.56
34482;BME280;20720;48.886;9.388;2024-03-25T09:53:56;97589.63;;;21.06;41.59
34482;BME280;20720;48.886;9.388;2024-03-25T09:56:21;97594.66;;;21.54;41.32
34482;BME280;20720;48.886;9.388;2024-03-25T09:58:47;97586.63;;;20.55;39.43
34482;BME280;20720;48.886;9.388;2024-03-25T10:01:14;97583.63;;;19.40;41.53
34482;BME280;20720;48.886;9.388;2024-03-25T10:03:39;97579.00;;;17.81;45.12
34482;BME280;20720;48.886;9.388;2024-03-25T10:06:04;97579.88;;;16.73;47.18
34482;BME280;20720;48.886;9.388;2024-03-25T10:08:29;97574.19;;;16.55;45.87
34482;BME280;20720;48.886;9.388;2024-03-25T10:10:55;97576.94;;;16.65;46.63
34482;BME280;20720;48.886;9.388;2024-03-25T10:13:21;97577.19;;;15.73;50.80
34482;BME280;20720;48.886;9.388;2024-03-25T10:15:50;97576.63;;;17.75;47.78
34482;BME280;20720;48.886;9.388;2024-03-25T10:18:15;97570.47;;;17.59;48.33
34482;BME280;20720;48.886;9.388;2024-03-25T10:20:53;97565.28;;;13.68;54.29
34482;BME280;20720;48.886;9.388;2024-03-25T10:23:24;97556.28;;;14.64;52.11
34482;BME280;20720;48.886;9.388;2024-03-25T10:25:52;97541.28;;;18.35;46.87
34482;BME280;20720;48.886;9.388;2024-03-25T10:28:18;97539.25;;;19.69;44.29
34482;BME280;20720;48.886;9.388;2024-03-25T10:30:44;97536.78;;;18.10;45.78
34482;BME280;20720;48.886;9.388;2024-03-25T10:33:09;97528.09;;;20.87;41.13
34482;BME280;20720;48.886;9.388;2024-03-25T10:35:36;97520.88;;;21.72;42.45
34482;BME280;20720;48.886;9.388;2024-03-25T10:38:06;97520.13;;;21.29;41.40
34482;BME280;20720;48.886;9.388;2024-03-25T10:40:35;97518.06;;;21.82;40.90
34482;BME280;20720;48.886;9.388;2024-03-25T10:45:33;97511.31;;;22.03;37.90
34482;BME280;20720;48.886;9.388;2024-03-25T10:48:03;97509.16;;;20.60;38.90
34482;BME280;20720;48.886;9.388;2024-03-25T10:50:29;97499.81;;;22.48;37.14
34482;BME280;20720;48.886;9.388;2024-03-25T10:52:56;97501.09;;;22.97;36.29
34482;BME280;20720;48.886;9.388;2024-03-25T10:55:22;97502.41;;;22.54;36.03
34482;BME280;20720;48.886;9.388;2024-03-25T10:57:48;97505.44;;;21.88;38.73
34482;BME280;20720;48.886;9.388;2024-03-25T11:00:15;97502.38;;;21.38;40.01
34482;BME280;20720;48.886;9.388;2024-03-25T11:02:44;97494.53;;;21.05;38.75
34482;BME280;20720;48.886;9.388;2024-03-25T11:05:10;97495.31;;;22.63;38.14
34482;BME280;20720;48.886;9.388;2024-03-25T11:07:36;97499.56;;;23.81;36.88
34482;BME280;20720;48.886;9.388;2024-03-25T11:10:05;97497.66;;;23.18;36.98
34482;BME280;20720;48.886;9.388;2024-03-25T11:12:32;97494.59;;;23.39;35.75
34482;BME280;20720;48.886;9.388;2024-03-25T11:14:57;97499.41;;;20.74;37.54
34482;BME280;20720;48.886;9.388;2024-03-25T11:17:23;97488.78;;;20.93;39.04
34482;BME280;20720;48.886;9.388;2024-03-25T11:19:48;97483.00;;;21.46;35.88
34482;BME280;20720;48.886;9.388;2024-03-25T11:22:14;97482.56;;;17.86;40.80
34482;BME280;20720;48.886;9.388;2024-03-25T11:24:43;97468.19;;;20.22;38.64
34482;BME280;20720;48.886;9.388;2024-03-25T11:27:09;97463.84;;;21.95;36.28
34482;BME280;20720;48.886;9.388;2024-03-25T11:29:35;97462.44;;;24.66;33.77
34482;BME280;20720;48.886;9.388;2024-03-25T11:32:05;97447.69;;;22.46;35.24
34482;BME280;20720;48.886;9.388;2024-03-25T11:34:30;97456.03;;;22.85;34.05
34482;BME280;20720;48.886;9.388;2024-03-25T11:36:57;97459.41;;;22.77;34.02
34482;BME280;20720;48.886;9.388;2024-03-25T11:39:23;97448.47;;;21.69;36.14
34482;BME280;20720;48.886;9.388;2024-03-25T11:41:48;97443.09;;;22.46;35.40
34482;BME280;20720;48.886;9.388;2024-03-25T11:44:14;97439.19;;;20.63;37.82
34482;BME280;20720;48.886;9.388;2024-03-25T11:46:39;97436.31;;;19.74;39.98
34482;BME280;20720;48.886;9.388;2024-03-25T11:49:15;97441.25;;;17.08;43.55
34482;BME280;20720;48.886;9.388;2024-03-25T11:51:43;97423.78;;;19.74;41.02
34482;BME280;20720;48.886;9.388;2024-03-25T11:54:10;97419.50;;;21.01;39.81
34482;BME280;20720;48.886;9.388;2024-03-25T11:56:36;97410.38;;;22.77;36.26
34482;BME280;20720;48.886;9.388;2024-03-25T11:59:03;97405.06;;;21.21;37.08
34482;BME280;20720;48.886;9.388;2024-03-25T12:01:29;97404.19;;;19.89;40.31
34482;BME280;20720;48.886;9.388;2024-03-25T12:03:54;97405.25;;;19.20;41.04
34482;BME280;20720;48.886;9.388;2024-03-25T12:06:20;97404.09;;;19.36;41.27
34482;BME280;20720;48.886;9.388;2024-03-25T12:08:45;97386.06;;;21.73;37.28
34482;BME280;20720;48.886;9.388;2024-03-25T12:11:31;97383.78;;;20.31;37.06
34482;BME280;20720;48.886;9.388;2024-03-25T12:13:56;97379.53;;;22.79;34.32
34482;BME280;20720;48.886;9.388;2024-03-25T12:16:23;97366.84;;;21.71;35.41
34482;BME280;20720;48.886;9.388;2024-03-25T12:18:48;97367.25;;;18.61;40.68
34482;BME280;20720;48.886;9.388;2024-03-25T12:21:14;97360.13;;;18.36;39.98
34482;BME280;20720;48.886;9.388;2024-03-25T12:23:42;97351.56;;;19.42;38.75
34482;BME280;20720;48.886;9.388;2024-03-25T12:26:07;97347.50;;;21.28;37.03
34482;BME280;20720;48.886;9.388;2024-03-25T12:28:33;97349.56;;;15.98;42.29
34482;BME280;20720;48.886;9.388;2024-03-25T12:31:07;97353.22;;;14.87;45.13
34482;BME280;20720;48.886;9.388;2024-03-25T12:33:42;97345.44;;;18.59;40.99
34482;BME280;20720;48.886;9.388;2024-03-25T12:36:08;97329.28;;;20.93;36.46
34482;BME280;20720;48.886;9.388;2024-03-25T12:38:34;97331.13;;;21.81;35.13
34482;BME280;20720;48.886;9.388;2024-03-25T12:41:11;97326.41;;;18.27;40.51
34482;BME280;20720;48.886;9.388;2024-03-25T12:43:44;97320.94;;;15.95;42.69
34482;BME280;20720;48.886;9.388;2024-03-25T12:46:10;97304.66;;;18.15;39.69
34482;BME280;20720;48.886;9.388;2024-03-25T12:48:36;97303.03;;;18.19;41.17
34482;BME280;20720;48.886;9.388;2024-03-25T12:51:01;97303.59;;;19.08;39.95
34482;BME280;20720;48.886;9.388;2024-03-25T12:53:27;97302.69;;;17.46;43.13
34482;BME280;20720;48.886;9.388;2024-03-25T12:55:52;97303.53;;;16.15;43.95